sensor_id;sensor_type;location;lat;lon;timestamp;pressure;altitude;pressure_sealevel;temperature;humidity
24825;BME280;12910;57.690;11.974;2022-10-31T00:00:48;100957.38;;;12.91;100.00
24825;BME280;12910;57.690;11.974;2022-10-31T00:03:14;100969.41;;;12.95;100.00
24825;BME280;12910;57.690;11.974;2022-10-31T00:05:41;100957.31;;;12.88;100.00
24825;BME280;12910;57.690;11.974;2022-10-31T00:08:07;100969.38;;;12.92;100.00
24825;BME280;12910;57.690;11.974;2022-10-31T00:10:33;100977.13;;;12.93;100.00
24825;BME280;12910;57.690;11.974;2022-10-31T00:12:58;100973.72;;;12.96;100.00
24825;BME280;12910;57.690;11.974;2022-10-31T00:15:23;100970.25;;;12.94;100.00
24825;BME280;12910;57.690;11.974;2022-10-31T00:17:49;100957.41;;;12.96;100.00
24825;BME280;12910;57.690;11.974;2022-10-31T00:20:14;100941.84;;;12.85;100.00
24825;BME280;12910;57.690;11.974;2022-10-31T00:22:39;100943.63;;;12.89;100.00
24825;BME280;12910;57.690;11.974;2022-10-31T00:25:05;100944.53;;;12.94;100.00
24825;BME280;12910;57.690;11.974;2022-10-31T00:27:30;100944.53;;;12.94;100.00
24825;BME280;12910;57.690;11.974;2022-10-31T00:29:56;100942.00;;;12.96;100.00
24825;BME280;12910;57.690;11.974;2022-10-31T00:32:21;100957.38;;;12.94;100.00
24825;BME280;12910;57.690;11.974;2022-10-31T00:34:46;100959.94;;;12.94;100.00
24825;BME280;12910;57.690;11.974;2022-10-31T00:37:12;100949.66;;;12.91;100.00
24825;BME280;12910;57.690;11.974;2022-10-31T00:39:37;100955.66;;;12.91;100.00
24825;BME280;12910;57.690;11.974;2022-10-31T00:42:03;100950.47;;;12.88;100.00
24825;BME280;12910;57.690;11.974;2022-10-31T00:44:28;100947.81;;;12.81;100.00
24825;BME280;12910;57.690;11.974;2022-10-31T00:46:53;100965.00;;;12.85;100.00
24825;BME280;12910;57.690;11.974;2022-10-31T00:49:19;100965.00;;;12.85;100.00
24825;BME280;12910;57.690;11.974;2022-10-31T00:51:44;100957.22;;;12.78;100.00
24825;BME280;12910;57.690;11.974;2022-10-31T00:54:09;100966.72;;;12.83;100.00
24825;BME280;12910;57.690;11.974;2022-10-31T00:56:35;100965.81;;;12.82;100.00
24825;BME280;12910;57.690;11.974;2022-10-31T00:59:00;100969.28;;;12.83;100.00
24825;BME280;12910;57.690;11.974;2022-10-31T01:01:25;100948.66;;;12.81;100.00
24825;BME280;12910;57.690;11.974;2022-10-31T01:03:51;100947.84;;;12.84;100.00
24825;BME280;12910;57.690;11.974;2022-10-31T01:06:16;100946.13;;;12.83;100.00
24825;BME280;12910;57.690;11.974;2022-10-31T01:08:42;100938.41;;;12.84;100.00
24825;BME280;12910;57.690;11.974;2022-10-31T01:11:17;100944.34;;;12.78;100.00
24825;BME280;12910;57.690;11.974;2022-10-31T01:13:43;100946.97;;;12.82;100.00
24825;BME280;12910;57.690;11.974;2022-10-31T01:16:12;100944.41;;;12.82;100.00
24825;BME280;12910;57.690;11.974;2022-10-31T01:18:38;100939.25;;;12.85;100.00
24825;BME280;12910;57.690;11.974;2022-10-31T01:21:13;100938.41;;;12.84;100.00
24825;BME280;12910;57.690;11.974;2022-10-31T01:23:39;100940.16;;;12.85;100.00
24825;BME280;12910;57.690;11.974;2022-10-31T01:28:33;100947.84;;;12.84;100.00
24825;BME280;12910;57.690;11.974;2022-10-31T01:31:07;100937.56;;;12.84;100.00
24825;BME280;12910;57.690;11.974;2022-10-31T01:33:33;100924.66;;;12.82;100.00
24825;BME280;12910;57.690;11.974;2022-10-31T01:35:59;100922.13;;;12.84;100.00
24825;BME280;12910;57.690;11.974;2022-10-31T01:38:24;100910.06;;;12.80;100.00
24825;BME280;12910;57.690;11.974;2022-10-31T01:40:50;100916.91;;;12.77;100.00
24825;BME280;12910;57.690;11.974;2022-10-31T01:43:16;100906.59;;;12.77;100.00
24825;BME280;12910;57.690;11.974;2022-10-31T01:45:46;100928.06;;;12.81;100.00
24825;BME280;12910;57.690;11.974;2022-10-31T01:48:19;100916.91;;;12.77;100.00
24825;BME280;12910;57.690;11.974;2022-10-31T01:50:46;100925.50;;;12.78;100.00
24825;BME280;12910;57.690;11.974;2022-10-31T01:53:13;100926.34;;;12.78;100.00
24825;BME280;12910;57.690;11.974;2022-10-31T01:55:40;100929.81;;;12.82;100.00
24825;BME280;12910;57.690;11.974;2022-10-31T01:58:13;100935.84;;;12.83;100.00
24825;BME280;12910;57.690;11.974;2022-10-31T02:00:41;100940.09;;;12.82;100.00
24825;BME280;12910;57.690;11.974;2022-10-31T02:03:08;100931.50;;;12.80;100.00
24825;BME280;12910;57.690;11.974;2022-10-31T02:05:34;100931.53;;;12.82;100.00
24825;BME280;12910;57.690;11.974;2022-10-31T02:10:42;100949.53;;;12.82;100.00
24825;BME280;12910;57.690;11.974;2022-10-31T02:13:09;100947.81;;;12.81;100.00
24825;BME280;12910;57.690;11.974;2022-10-31T02:15:35;100949.53;;;12.82;100.00
24825;BME280;12910;57.690;11.974;2022-10-31T02:18:02;100954.69;;;12.82;100.00
24825;BME280;12910;57.690;11.974;2022-10-31T02:20:32;100971.81;;;12.80;100.00
24825;BME280;12910;57.690;11.974;2022-10-31T02:23:25;100988.13;;;12.82;100.00
24825;BME280;12910;57.690;11.974;2022-10-31T02:29:05;100972.66;;;12.80;100.00
24825;BME280;12910;57.690;11.974;2022-10-31T02:35:03;100964.03;;;12.75;100.00
24825;BME280;12910;57.690;11.974;2022-10-31T02:43:05;100988.06;;;12.77;100.00
24825;BME280;12910;57.690;11.974;2022-10-31T02:48:19;100986.34;;;12.76;100.00
24825;BME280;12910;57.690;11.974;2022-10-31T02:50:53;100980.34;;;12.77;100.00
24825;BME280;12910;57.690;11.974;2022-10-31T02:53:19;100971.69;;;12.70;100.00
24825;BME280;12910;57.690;11.974;2022-10-31T02:55:49;100986.34;;;12.76;100.00
24825;BME280;12910;57.690;11.974;2022-10-31T02:58:20;100991.50;;;12.77;100.00
24825;BME280;12910;57.690;11.974;2022-10-31T03:01:13;100986.34;;;12.77;100.00
24825;BME280;12910;57.690;11.974;2022-10-31T03:04:09;100965.78;;;12.77;100.00
24825;BME280;12910;57.690;11.974;2022-10-31T03:10:00;100963.19;;;12.77;100.00
24825;BME280;12910;57.690;11.974;2022-10-31T03:12:42;100964.94;;;12.78;100.00
24825;BME280;12910;57.690;11.974;2022-10-31T03:15:23;100970.03;;;12.75;100.00
24825;BME280;12910;57.690;11.974;2022-10-31T03:18:02;100974.31;;;12.75;100.00
24825;BME280;12910;57.690;11.974;2022-10-31T03:20:39;100979.47;;;12.76;100.00
24825;BME280;12910;57.690;11.974;2022-10-31T03:23:09;100970.88;;;12.74;100.00
24825;BME280;12910;57.690;11.974;2022-10-31T03:25:37;100986.28;;;12.74;100.00
24825;BME280;12910;57.690;11.974;2022-10-31T03:28:05;100995.72;;;12.72;100.00
24825;BME280;12910;57.690;11.974;2022-10-31T03:30:33;100993.94;;;12.68;100.00
24825;BME280;12910;57.690;11.974;2022-10-31T03:33:04;101009.44;;;12.71;100.00
24825;BME280;12910;57.690;11.974;2022-10-31T03:35:33;101017.09;;;12.70;100.00
24825;BME280;12910;57.690;11.974;2022-10-31T03:38:01;100997.34;;;12.67;100.00
24825;BME280;12910;57.690;11.974;2022-10-31T03:40:30;100987.06;;;12.66;100.00
24825;BME280;12910;57.690;11.974;2022-10-31T03:43:00;101011.94;;;12.67;100.00
24825;BME280;12910;57.690;11.974;2022-10-31T03:45:30;101010.22;;;12.67;100.00
24825;BME280;12910;57.690;11.974;2022-10-31T03:47:57;101016.19;;;12.66;100.00
24825;BME280;12910;57.690;11.974;2022-10-31T03:50:25;101013.69;;;12.71;100.00
24825;BME280;12910;57.690;11.974;2022-10-31T03:53:05;101004.22;;;12.68;100.00
24825;BME280;12910;57.690;11.974;2022-10-31T03:55:40;101001.66;;;12.67;100.00
24825;BME280;12910;57.690;11.974;2022-10-31T03:58:10;101002.50;;;12.67;100.00
24825;BME280;12910;57.690;11.974;2022-10-31T04:00:40;101002.50;;;12.67;100.00
24825;BME280;12910;57.690;11.974;2022-10-31T04:03:32;101011.94;;;12.68;100.00
24825;BME280;12910;57.690;11.974;2022-10-31T04:06:02;100998.22;;;12.68;100.00
24825;BME280;12910;57.690;11.974;2022-10-31T04:08:31;100981.00;;;12.62;100.00
24825;BME280;12910;57.690;11.974;2022-10-31T04:10:59;100987.06;;;12.67;100.00
24825;BME280;12910;57.690;11.974;2022-10-31T04:13:29;100992.25;;;12.70;100.00
24825;BME280;12910;57.690;11.974;2022-10-31T04:15:56;100982.75;;;12.63;100.00
24825;BME280;12910;57.690;11.974;2022-10-31T04:18:23;100995.66;;;12.68;100.00
24825;BME280;12910;57.690;11.974;2022-10-31T04:20:49;100995.63;;;12.66;100.00
24825;BME280;12910;57.690;11.974;2022-10-31T04:23:20;100994.75;;;12.64;100.00
24825;BME280;12910;57.690;11.974;2022-10-31T04:25:47;100999.94;;;12.67;100.00
24825;BME280;12910;57.690;11.974;2022-10-31T04:28:12;100987.91;;;12.65;100.00
24825;BME280;12910;57.690;11.974;2022-10-31T04:30:38;100986.19;;;12.65;100.00
24825;BME280;12910;57.690;11.974;2022-10-31T04:33:03;100984.47;;;12.64;100.00
24825;BME280;12910;57.690;11.974;2022-10-31T04:35:29;100987.91;;;12.66;100.00
24825;BME280;12910;57.690;11.974;2022-10-31T04:37:54;100987.91;;;12.66;100.00
24825;BME280;12910;57.690;11.974;2022-10-31T04:40:19;100987.91;;;12.65;100.00
24825;BME280;12910;57.690;11.974;2022-10-31T04:42:45;101002.47;;;12.64;100.00
24825;BME280;12910;57.690;11.974;2022-10-31T04:45:10;100988.69;;;12.59;100.00
24825;BME280;12910;57.690;11.974;2022-10-31T04:47:36;101003.25;;;12.60;100.00
24825;BME280;12910;57.690;11.974;2022-10-31T04:50:02;101006.75;;;12.63;100.00
24825;BME280;12910;57.690;11.974;2022-10-31T04:52:27;101007.63;;;12.64;100.00
24825;BME280;12910;57.690;11.974;2022-10-31T04:54:53;101002.41;;;12.61;100.00
24825;BME280;12910;57.690;11.974;2022-10-31T04:57:18;101006.72;;;12.62;100.00
24825;BME280;12910;57.690;11.974;2022-10-31T04:59:43;101010.97;;;12.60;100.00
24825;BME280;12910;57.690;11.974;2022-10-31T05:02:09;101012.69;;;12.59;100.00
24825;BME280;12910;57.690;11.974;2022-10-31T05:04:34;101008.41;;;12.58;100.00
24825;BME280;12910;57.690;11.974;2022-10-31T05:06:59;101017.78;;;12.58;100.00
24825;BME280;12910;57.690;11.974;2022-10-31T05:09:25;101007.50;;;12.58;100.00
24825;BME280;12910;57.690;11.974;2022-10-31T05:11:50;101011.75;;;12.56;100.00
24825;BME280;12910;57.690;11.974;2022-10-31T05:14:15;100995.41;;;12.51;100.00
24825;BME280;12910;57.690;11.974;2022-10-31T05:16:41;101007.50;;;12.55;100.00
24825;BME280;12910;57.690;11.974;2022-10-31T05:19:06;101012.59;;;12.53;100.00
24825;BME280;12910;57.690;11.974;2022-10-31T05:21:31;101022.91;;;12.55;100.00
24825;BME280;12910;57.690;11.974;2022-10-31T05:23:57;101018.63;;;12.54;100.00
24825;BME280;12910;57.690;11.974;2022-10-31T05:26:23;101022.94;;;12.56;100.00
24825;BME280;12910;57.690;11.974;2022-10-31T05:28:48;101019.44;;;12.53;100.00
24825;BME280;12910;57.690;11.974;2022-10-31T05:31:13;101027.22;;;12.57;100.00
24825;BME280;12910;57.690;11.974;2022-10-31T05:33:39;101024.63;;;12.56;100.00
24825;BME280;12910;57.690;11.974;2022-10-31T05:36:04;101027.22;;;12.57;100.00
24825;BME280;12910;57.690;11.974;2022-10-31T05:38:30;101029.81;;;12.57;100.00
24825;BME280;12910;57.690;11.974;2022-10-31T05:40:56;101032.41;;;12.60;100.00
24825;BME280;12910;57.690;11.974;2022-10-31T05:43:23;101033.22;;;12.58;100.00
24825;BME280;12910;57.690;11.974;2022-10-31T05:45:52;101028.09;;;12.58;100.00
24825;BME280;12910;57.690;11.974;2022-10-31T05:48:18;101022.03;;;12.53;100.00
24825;BME280;12910;57.690;11.974;2022-10-31T05:50:44;101023.78;;;12.55;100.00
24825;BME280;12910;57.690;11.974;2022-10-31T05:53:09;101019.47;;;12.54;100.00
24825;BME280;12910;57.690;11.974;2022-10-31T05:55:34;101019.47;;;12.56;100.00
24825;BME280;12910;57.690;11.974;2022-10-31T05:58:00;101020.34;;;12.55;100.00
24825;BME280;12910;57.690;11.974;2022-10-31T06:00:26;101033.28;;;12.61;100.00
24825;BME280;12910;57.690;11.974;2022-10-31T06:03:03;101029.81;;;12.60;100.00
24825;BME280;12910;57.690;11.974;2022-10-31T06:05:29;101030.72;;;12.62;100.00
24825;BME280;12910;57.690;11.974;2022-10-31T06:07:55;101028.97;;;12.60;100.00
24825;BME280;12910;57.690;11.974;2022-10-31T06:10:21;101030.66;;;12.58;100.00
24825;BME280;12910;57.690;11.974;2022-10-31T06:12:47;101034.13;;;12.60;100.00
24825;BME280;12910;57.690;11.974;2022-10-31T06:15:13;101041.84;;;12.60;100.00
24825;BME280;12910;57.690;11.974;2022-10-31T06:17:39;101036.69;;;12.60;100.00
24825;BME280;12910;57.690;11.974;2022-10-31T06:20:05;101045.38;;;12.67;100.00
24825;BME280;12910;57.690;11.974;2022-10-31T06:22:31;101050.47;;;12.65;100.00
24825;BME280;12910;57.690;11.974;2022-10-31T06:24:56;101047.03;;;12.63;100.00
24825;BME280;12910;57.690;11.974;2022-10-31T06:27:22;101049.63;;;12.65;100.00
24825;BME280;12910;57.690;11.974;2022-10-31T06:29:47;101043.56;;;12.62;100.00
24825;BME280;12910;57.690;11.974;2022-10-31T06:32:13;101058.19;;;12.65;100.00
24825;BME280;12910;57.690;11.974;2022-10-31T06:34:39;101047.03;;;12.65;100.00
24825;BME280;12910;57.690;11.974;2022-10-31T06:37:09;101056.50;;;12.67;100.00
24825;BME280;12910;57.690;11.974;2022-10-31T06:39:35;101067.63;;;12.66;100.00
24825;BME280;12910;57.690;11.974;2022-10-31T06:42:01;101057.25;;;12.58;100.00
24825;BME280;12910;57.690;11.974;2022-10-31T06:44:26;101075.34;;;12.66;100.00
24825;BME280;12910;57.690;11.974;2022-10-31T06:46:52;101070.19;;;12.65;100.00
24825;BME280;12910;57.690;11.974;2022-10-31T06:49:17;101076.16;;;12.63;100.00
24825;BME280;12910;57.690;11.974;2022-10-31T06:51:42;101079.59;;;12.62;100.00
24825;BME280;12910;57.690;11.974;2022-10-31T06:54:08;101070.94;;;12.57;100.00
24825;BME280;12910;57.690;11.974;2022-10-31T06:56:34;101067.47;;;12.54;100.00
24825;BME280;12910;57.690;11.974;2022-10-31T06:58:59;101062.25;;;12.49;100.00
24825;BME280;12910;57.690;11.974;2022-10-31T07:01:25;101073.47;;;12.56;100.00
24825;BME280;12910;57.690;11.974;2022-10-31T07:03:50;101079.44;;;12.53;100.00
24825;BME280;12910;57.690;11.974;2022-10-31T07:06:15;101077.69;;;12.51;100.00
24825;BME280;12910;57.690;11.974;2022-10-31T07:08:41;101069.91;;;12.44;100.00
24825;BME280;12910;57.690;11.974;2022-10-31T07:11:06;101073.31;;;12.43;100.00
24825;BME280;12910;57.690;11.974;2022-10-31T07:13:31;101084.50;;;12.49;100.00
24825;BME280;12910;57.690;11.974;2022-10-31T07:16:03;101082.78;;;12.47;100.00
24825;BME280;12910;57.690;11.974;2022-10-31T07:18:29;101086.25;;;12.50;100.00
24825;BME280;12910;57.690;11.974;2022-10-31T07:20:55;101080.06;;;12.38;100.00
24825;BME280;12910;57.690;11.974;2022-10-31T07:23:21;101096.47;;;12.46;100.00
24825;BME280;12910;57.690;11.974;2022-10-31T07:25:46;101086.19;;;12.45;100.00
24825;BME280;12910;57.690;11.974;2022-10-31T07:28:12;101099.09;;;12.50;100.00
24825;BME280;12910;57.690;11.974;2022-10-31T07:30:38;101097.50;;;12.55;100.00
24825;BME280;12910;57.690;11.974;2022-10-31T07:33:04;101101.75;;;12.56;100.00
24825;BME280;12910;57.690;11.974;2022-10-31T07:35:30;101104.31;;;12.54;100.00
24825;BME280;12910;57.690;11.974;2022-10-31T07:37:56;101101.63;;;12.46;100.00
24825;BME280;12910;57.690;11.974;2022-10-31T07:40:23;101105.19;;;12.55;100.00
24825;BME280;12910;57.690;11.974;2022-10-31T07:42:50;101119.72;;;12.53;100.00
24825;BME280;12910;57.690;11.974;2022-10-31T07:45:18;101118.91;;;12.54;100.00
24825;BME280;12910;57.690;11.974;2022-10-31T07:47:51;101119.72;;;12.53;100.00
24825;BME280;12910;57.690;11.974;2022-10-31T07:50:19;101119.66;;;12.48;100.00
24825;BME280;12910;57.690;11.974;2022-10-31T07:52:45;101120.50;;;12.49;100.00
24825;BME280;12910;57.690;11.974;2022-10-31T07:55:12;101125.66;;;12.49;100.00
24825;BME280;12910;57.690;11.974;2022-10-31T07:57:37;101126.47;;;12.46;100.00
24825;BME280;12910;57.690;11.974;2022-10-31T08:00:05;101133.41;;;12.50;100.00
24825;BME280;12910;57.690;11.974;2022-10-31T08:02:31;101122.84;;;12.35;100.00
24825;BME280;12910;57.690;11.974;2022-10-31T08:04:56;101107.28;;;12.25;100.00
24825;BME280;12910;57.690;11.974;2022-10-31T08:07:21;101132.31;;;12.37;100.00
24825;BME280;12910;57.690;11.974;2022-10-31T08:09:47;101131.53;;;12.40;100.00
24825;BME280;12910;57.690;11.974;2022-10-31T08:12:12;101138.34;;;12.39;100.00
24825;BME280;12910;57.690;11.974;2022-10-31T08:14:38;101116.56;;;12.19;100.00
24825;BME280;12910;57.690;11.974;2022-10-31T08:17:03;101141.66;;;12.32;100.00
24825;BME280;12910;57.690;11.974;2022-10-31T08:19:28;101126.16;;;12.26;100.00
24825;BME280;12910;57.690;11.974;2022-10-31T08:21:54;101137.47;;;12.37;100.00
24825;BME280;12910;57.690;11.974;2022-10-31T08:24:21;101152.94;;;12.40;100.00
24825;BME280;12910;57.690;11.974;2022-10-31T08:26:47;101139.25;;;12.40;100.00
24825;BME280;12910;57.690;11.974;2022-10-31T08:29:12;101140.16;;;12.45;100.00
24825;BME280;12910;57.690;11.974;2022-10-31T08:31:38;101135.03;;;12.45;100.00
24825;BME280;12910;57.690;11.974;2022-10-31T08:34:03;101149.69;;;12.51;100.00
24825;BME280;12910;57.690;11.974;2022-10-31T08:36:29;101133.34;;;12.47;100.00
24825;BME280;12910;57.690;11.974;2022-10-31T08:38:54;101132.59;;;12.53;100.00
24825;BME280;12910;57.690;11.974;2022-10-31T08:41:20;101138.66;;;12.56;100.00
24825;BME280;12910;57.690;11.974;2022-10-31T08:43:46;101149.84;;;12.60;100.00
24825;BME280;12910;57.690;11.974;2022-10-31T08:46:12;101143.81;;;12.58;100.00
24825;BME280;12910;57.690;11.974;2022-10-31T08:48:37;101137.75;;;12.56;100.00
24825;BME280;12910;57.690;11.974;2022-10-31T08:51:03;101149.94;;;12.66;100.00
24825;BME280;12910;57.690;11.974;2022-10-31T08:53:28;101156.78;;;12.64;100.00
24825;BME280;12910;57.690;11.974;2022-10-31T08:55:55;101153.34;;;12.65;100.00
24825;BME280;12910;57.690;11.974;2022-10-31T08:58:21;101150.69;;;12.60;100.00
24825;BME280;12910;57.690;11.974;2022-10-31T09:00:51;101156.81;;;12.67;100.00
24825;BME280;12910;57.690;11.974;2022-10-31T09:03:20;101161.97;;;12.67;100.00
24825;BME280;12910;57.690;11.974;2022-10-31T09:05:46;101166.31;;;12.71;100.00
24825;BME280;12910;57.690;11.974;2022-10-31T09:08:12;101161.19;;;12.71;100.00
24825;BME280;12910;57.690;11.974;2022-10-31T09:10:38;101161.03;;;12.63;100.00
24825;BME280;12910;57.690;11.974;2022-10-31T09:13:06;101161.25;;;12.76;100.00
24825;BME280;12910;57.690;11.974;2022-10-31T09:15:34;101161.13;;;12.68;100.00
24825;BME280;12910;57.690;11.974;2022-10-31T09:18:00;101161.13;;;12.68;100.00
24825;BME280;12910;57.690;11.974;2022-10-31T09:20:26;101173.22;;;12.75;100.00
24825;BME280;12910;57.690;11.974;2022-10-31T09:22:59;101177.53;;;12.76;100.00
24825;BME280;12910;57.690;11.974;2022-10-31T09:25:26;101175.03;;;12.81;100.00
24825;BME280;12910;57.690;11.974;2022-10-31T09:27:55;101178.41;;;12.77;100.00
24825;BME280;12910;57.690;11.974;2022-10-31T09:30:20;101180.91;;;12.72;100.00
24825;BME280;12910;57.690;11.974;2022-10-31T09:32:46;101166.25;;;12.67;100.00
24825;BME280;12910;57.690;11.974;2022-10-31T09:35:11;101175.78;;;12.72;100.00
24825;BME280;12910;57.690;11.974;2022-10-31T09:37:37;101188.75;;;12.80;100.00
24825;BME280;12910;57.690;11.974;2022-10-31T09:40:03;101179.28;;;12.77;100.00
24825;BME280;12910;57.690;11.974;2022-10-31T09:45:31;101186.22;;;12.82;100.00
24825;BME280;12910;57.690;11.974;2022-10-31T09:51:17;101189.50;;;12.74;100.00
24825;BME280;12910;57.690;11.974;2022-10-31T09:53:50;101197.28;;;12.77;100.00
24825;BME280;12910;57.690;11.974;2022-10-31T09:56:20;101195.53;;;12.75;100.00
24825;BME280;12910;57.690;11.974;2022-10-31T09:58:57;101187.78;;;12.73;100.00
24825;BME280;12910;57.690;11.974;2022-10-31T10:03:57;101193.03;;;12.80;100.00
24825;BME280;12910;57.690;11.974;2022-10-31T10:06:28;101198.25;;;12.86;100.00
24825;BME280;12910;57.690;11.974;2022-10-31T10:08:55;101195.66;;;12.83;100.00
24825;BME280;12910;57.690;11.974;2022-10-31T10:11:35;101195.66;;;12.83;100.00
24825;BME280;12910;57.690;11.974;2022-10-31T10:16:40;101205.91;;;12.80;100.00
24825;BME280;12910;57.690;11.974;2022-10-31T10:26:59;101186.34;;;12.91;100.00
24825;BME280;12910;57.690;11.974;2022-10-31T10:31:55;101179.53;;;12.93;100.00
24825;BME280;12910;57.690;11.974;2022-10-31T10:34:28;101182.94;;;12.92;100.00
24825;BME280;12910;57.690;11.974;2022-10-31T10:37:03;101168.28;;;12.86;100.00
24825;BME280;12910;57.690;11.974;2022-10-31T10:39:40;101181.22;;;12.91;100.00
24825;BME280;12910;57.690;11.974;2022-10-31T10:42:13;101175.19;;;12.90;100.00
24825;BME280;12910;57.690;11.974;2022-10-31T10:44:58;101174.34;;;12.91;100.00
24825;BME280;12910;57.690;11.974;2022-10-31T10:47:45;101174.34;;;12.91;100.00
24825;BME280;12910;57.690;11.974;2022-10-31T10:50:17;101180.44;;;12.97;100.00
24825;BME280;12910;57.690;11.974;2022-10-31T10:52:50;101183.94;;;13.02;100.00
24825;BME280;12910;57.690;11.974;2022-10-31T10:55:51;101176.22;;;13.02;100.00
24825;BME280;12910;57.690;11.974;2022-10-31T10:58:20;101169.38;;;13.02;100.00
24825;BME280;12910;57.690;11.974;2022-10-31T11:00:46;101168.56;;;13.05;100.00
24825;BME280;12910;57.690;11.974;2022-10-31T11:03:14;101178.03;;;13.07;100.00
24825;BME280;12910;57.690;11.974;2022-10-31T11:08:30;101181.53;;;13.13;100.00
24825;BME280;12910;57.690;11.974;2022-10-31T11:11:01;101176.41;;;13.16;100.00
24825;BME280;12910;57.690;11.974;2022-10-31T11:13:27;101181.50;;;13.09;100.00
24825;BME280;12910;57.690;11.974;2022-10-31T11:16:03;101184.13;;;13.16;100.00
24825;BME280;12910;57.690;11.974;2022-10-31T11:18:32;101170.31;;;13.09;100.00
24825;BME280;12910;57.690;11.974;2022-10-31T11:21:01;101176.47;;;13.19;100.00
24825;BME280;12910;57.690;11.974;2022-10-31T11:23:28;101169.59;;;13.19;100.00
24825;BME280;12910;57.690;11.974;2022-10-31T11:28:22;101166.13;;;13.16;100.00
24825;BME280;12910;57.690;11.974;2022-10-31T11:30:52;101160.91;;;13.09;100.00
24825;BME280;12910;57.690;11.974;2022-10-31T11:33:26;101151.44;;;13.07;100.00
24825;BME280;12910;57.690;11.974;2022-10-31T11:35:53;101158.50;;;13.22;100.00
24825;BME280;12910;57.690;11.974;2022-10-31T11:38:22;101158.59;;;13.28;100.00
24825;BME280;12910;57.690;11.974;2022-10-31T11:41:14;101138.75;;;13.21;100.00
24825;BME280;12910;57.690;11.974;2022-10-31T11:43:38;101147.56;;;13.38;100.00
24825;BME280;12910;57.690;11.974;2022-10-31T11:46:10;101139.03;;;13.39;100.00
24825;BME280;12910;57.690;11.974;2022-10-31T11:48:36;101137.38;;;13.45;100.00
24825;BME280;12910;57.690;11.974;2022-10-31T11:51:03;101144.31;;;13.50;100.00
24825;BME280;12910;57.690;11.974;2022-10-31T11:53:32;101127.13;;;13.48;100.00
24825;BME280;12910;57.690;11.974;2022-10-31T11:58:30;101122.03;;;13.54;100.00
24825;BME280;12910;57.690;11.974;2022-10-31T12:00:56;101118.56;;;13.52;100.00
24825;BME280;12910;57.690;11.974;2022-10-31T12:05:58;101109.19;;;13.55;100.00
24825;BME280;12910;57.690;11.974;2022-10-31T12:08:30;101115.19;;;13.56;100.00
24825;BME280;12910;57.690;11.974;2022-10-31T12:11:06;101114.28;;;13.54;100.00
24825;BME280;12910;57.690;11.974;2022-10-31T12:25:28;101103.94;;;13.49;100.00
24825;BME280;12910;57.690;11.974;2022-10-31T12:39:25;101123.75;;;13.55;100.00
24825;BME280;12910;57.690;11.974;2022-10-31T12:50:02;101128.84;;;13.50;100.00
24825;BME280;12910;57.690;11.974;2022-10-31T12:55:48;101140.88;;;13.50;100.00
24825;BME280;12910;57.690;11.974;2022-10-31T12:58:24;101147.66;;;13.43;100.00
24825;BME280;12910;57.690;11.974;2022-10-31T13:01:05;101146.66;;;13.35;100.00
24825;BME280;12910;57.690;11.974;2022-10-31T13:03:42;101156.97;;;13.38;100.00
24825;BME280;12910;57.690;11.974;2022-10-31T13:06:16;101143.19;;;13.33;100.00
24825;BME280;12910;57.690;11.974;2022-10-31T13:08:53;101157.88;;;13.38;100.00
24825;BME280;12910;57.690;11.974;2022-10-31T13:14:07;101149.19;;;13.30;100.00
24825;BME280;12910;57.690;11.974;2022-10-31T13:16:37;101161.09;;;13.25;100.00
24825;BME280;12910;57.690;11.974;2022-10-31T13:24:22;101165.34;;;13.21;100.00
24825;BME280;12910;57.690;11.974;2022-10-31T13:26:54;101166.22;;;13.22;100.00
24825;BME280;12910;57.690;11.974;2022-10-31T13:29:29;101178.22;;;13.23;100.00
24825;BME280;12910;57.690;11.974;2022-10-31T13:31:57;101173.06;;;13.20;100.00
24825;BME280;12910;57.690;11.974;2022-10-31T13:42:58;101185.81;;;13.14;100.00
24825;BME280;12910;57.690;11.974;2022-10-31T13:45:27;101184.97;;;13.13;100.00
24825;BME280;12910;57.690;11.974;2022-10-31T13:50:40;101185.03;;;13.16;100.00
24825;BME280;12910;57.690;11.974;2022-10-31T14:01:24;101163.34;;;13.00;100.00
24825;BME280;12910;57.690;11.974;2022-10-31T14:04:14;101169.44;;;13.07;100.00
24825;BME280;12910;57.690;11.974;2022-10-31T14:11:49;101190.75;;;13.00;100.00
24825;BME280;12910;57.690;11.974;2022-10-31T14:14:15;101180.41;;;12.95;100.00
24825;BME280;12910;57.690;11.974;2022-10-31T14:16:44;101186.38;;;12.94;100.00
24825;BME280;12910;57.690;11.974;2022-10-31T14:19:18;101183.88;;;12.97;100.00
24825;BME280;12910;57.690;11.974;2022-10-31T14:21:46;101180.41;;;12.95;100.00
24825;BME280;12910;57.690;11.974;2022-10-31T14:24:29;101194.16;;;12.97;100.00
24825;BME280;12910;57.690;11.974;2022-10-31T14:27:47;101187.25;;;12.94;100.00
24825;BME280;12910;57.690;11.974;2022-10-31T14:29:47;101189.72;;;12.87;100.00
24825;BME280;12910;57.690;11.974;2022-10-31T14:34:52;101190.44;;;12.78;100.00
24825;BME280;12910;57.690;11.974;2022-10-31T14:45:45;101195.13;;;12.52;100.00
24825;BME280;12910;57.690;11.974;2022-10-31T14:51:16;101209.59;;;12.46;100.00
24825;BME280;12910;57.690;11.974;2022-10-31T14:53:48;101206.94;;;12.42;100.00